sensor_id;sensor_type;location;lat;lon;timestamp;pressure;altitude;pressure_sealevel;temperature;humidity
61436;BME280;47304;47.456;19.160;2023-11-19T00:01:58;100861.95;;;2.71;67.51
61436;BME280;47304;47.456;19.160;2023-11-19T00:04:26;100861.39;;;2.70;67.47
61436;BME280;47304;47.456;19.160;2023-11-19T00:06:55;100855.52;;;2.70;67.47
61436;BME280;47304;47.456;19.160;2023-11-19T00:09:23;100853.71;;;2.68;67.38
61436;BME280;47304;47.456;19.160;2023-11-19T00:11:52;100860.62;;;2.63;67.40
61436;BME280;47304;47.456;19.160;2023-11-19T00:14:20;100856.04;;;2.57;67.41
61436;BME280;47304;47.456;19.160;2023-11-19T00:16:48;100846.74;;;2.49;67.64
61436;BME280;47304;47.456;19.160;2023-11-19T00:19:17;100840.72;;;2.45;67.69
61436;BME280;47304;47.456;19.160;2023-11-19T00:21:45;100833.66;;;2.42;67.68
61436;BME280;47304;47.456;19.160;2023-11-19T00:24:14;100847.16;;;2.38;67.75
61436;BME280;47304;47.456;19.160;2023-11-19T00:26:42;100847.08;;;2.32;67.69
61436;BME280;47304;47.456;19.160;2023-11-19T00:29:11;100847.15;;;2.25;68.07
61436;BME280;47304;47.456;19.160;2023-11-19T00:31:39;100850.88;;;2.23;68.39
61436;BME280;47304;47.456;19.160;2023-11-19T00:34:08;100857.38;;;2.25;68.61
61436;BME280;47304;47.456;19.160;2023-11-19T00:36:36;100871.27;;;2.27;68.62
61436;BME280;47304;47.456;19.160;2023-11-19T00:39:05;100870.29;;;2.28;68.35
61436;BME280;47304;47.456;19.160;2023-11-19T00:41:33;100868.11;;;2.30;68.30
61436;BME280;47304;47.456;19.160;2023-11-19T00:44:02;100865.04;;;2.31;68.42
61436;BME280;47304;47.456;19.160;2023-11-19T00:46:30;100859.79;;;2.29;68.41
61436;BME280;47304;47.456;19.160;2023-11-19T00:48:59;100856.03;;;2.26;68.49
61436;BME280;47304;47.456;19.160;2023-11-19T00:51:27;100864.88;;;2.23;68.42
61436;BME280;47304;47.456;19.160;2023-11-19T00:53:55;100859.27;;;2.21;68.70
61436;BME280;47304;47.456;19.160;2023-11-19T00:56:24;100857.58;;;2.22;68.90
61436;BME280;47304;47.456;19.160;2023-11-19T00:58:52;100858.17;;;2.24;69.01
61436;BME280;47304;47.456;19.160;2023-11-19T01:01:21;100860.17;;;2.22;68.79
61436;BME280;47304;47.456;19.160;2023-11-19T01:03:49;100852.74;;;2.18;68.80
61436;BME280;47304;47.456;19.160;2023-11-19T01:06:28;100842.29;;;2.16;69.02
61436;BME280;47304;47.456;19.160;2023-11-19T01:08:56;100839.95;;;2.18;69.02
61436;BME280;47304;47.456;19.160;2023-11-19T01:11:25;100840.68;;;2.19;69.17
61436;BME280;47304;47.456;19.160;2023-11-19T01:13:54;100844.98;;;2.18;69.05
61436;BME280;47304;47.456;19.160;2023-11-19T01:16:22;100855.25;;;2.20;69.03
61436;BME280;47304;47.456;19.160;2023-11-19T01:18:50;100855.27;;;2.21;69.08
61436;BME280;47304;47.456;19.160;2023-11-19T01:21:19;100856.86;;;2.21;69.24
61436;BME280;47304;47.456;19.160;2023-11-19T01:23:47;100854.48;;;2.22;69.15
61436;BME280;47304;47.456;19.160;2023-11-19T01:26:16;100845.16;;;2.18;68.93
61436;BME280;47304;47.456;19.160;2023-11-19T01:28:45;100838.08;;;2.14;69.14
61436;BME280;47304;47.456;19.160;2023-11-19T01:31:14;100837.45;;;2.12;69.15
61436;BME280;47304;47.456;19.160;2023-11-19T01:33:43;100838.90;;;2.09;69.10
61436;BME280;47304;47.456;19.160;2023-11-19T01:36:14;100834.94;;;2.05;68.94
61436;BME280;47304;47.456;19.160;2023-11-19T01:38:42;100836.20;;;1.98;68.96
61436;BME280;47304;47.456;19.160;2023-11-19T01:41:11;100834.38;;;1.92;69.09
61436;BME280;47304;47.456;19.160;2023-11-19T01:43:40;100829.08;;;1.89;69.48
61436;BME280;47304;47.456;19.160;2023-11-19T01:46:08;100829.81;;;1.90;69.62
61436;BME280;47304;47.456;19.160;2023-11-19T01:48:39;100828.47;;;1.91;69.70
61436;BME280;47304;47.456;19.160;2023-11-19T01:51:09;100832.20;;;1.89;69.56
61436;BME280;47304;47.456;19.160;2023-11-19T01:53:39;100830.06;;;1.88;69.66
61436;BME280;47304;47.456;19.160;2023-11-19T01:56:09;100829.60;;;1.85;69.56
61436;BME280;47304;47.456;19.160;2023-11-19T01:58:38;100824.27;;;1.78;69.61
61436;BME280;47304;47.456;19.160;2023-11-19T02:01:08;100811.44;;;1.72;69.86
61436;BME280;47304;47.456;19.160;2023-11-19T02:03:37;100807.89;;;1.69;70.22
61436;BME280;47304;47.456;19.160;2023-11-19T02:06:07;100804.52;;;1.71;70.24
61436;BME280;47304;47.456;19.160;2023-11-19T02:08:35;100795.89;;;1.72;70.17
61436;BME280;47304;47.456;19.160;2023-11-19T02:11:04;100794.17;;;1.72;70.32
61436;BME280;47304;47.456;19.160;2023-11-19T02:13:33;100790.09;;;1.74;70.36
61436;BME280;47304;47.456;19.160;2023-11-19T02:16:02;100795.25;;;1.77;70.34
61436;BME280;47304;47.456;19.160;2023-11-19T02:18:30;100794.13;;;1.80;70.41
61436;BME280;47304;47.456;19.160;2023-11-19T02:21:00;100796.73;;;1.80;70.27
61436;BME280;47304;47.456;19.160;2023-11-19T02:23:29;100798.27;;;1.79;70.14
61436;BME280;47304;47.456;19.160;2023-11-19T02:26:14;100801.36;;;1.79;70.23
61436;BME280;47304;47.456;19.160;2023-11-19T02:28:45;100799.77;;;1.78;70.07
61436;BME280;47304;47.456;19.160;2023-11-19T02:31:14;100789.64;;;1.76;69.99
61436;BME280;47304;47.456;19.160;2023-11-19T02:33:42;100776.42;;;1.73;69.88
61436;BME280;47304;47.456;19.160;2023-11-19T02:36:11;100771.98;;;1.70;69.83
61436;BME280;47304;47.456;19.160;2023-11-19T02:38:40;100783.03;;;1.66;69.98
61436;BME280;47304;47.456;19.160;2023-11-19T02:41:09;100791.80;;;1.65;70.27
61436;BME280;47304;47.456;19.160;2023-11-19T02:43:38;100790.38;;;1.64;70.28
61436;BME280;47304;47.456;19.160;2023-11-19T02:46:07;100788.94;;;1.63;70.24
61436;BME280;47304;47.456;19.160;2023-11-19T02:48:36;100785.77;;;1.61;70.19
61436;BME280;47304;47.456;19.160;2023-11-19T02:51:05;100776.89;;;1.60;70.16
61436;BME280;47304;47.456;19.160;2023-11-19T02:53:33;100767.46;;;1.57;70.05
61436;BME280;47304;47.456;19.160;2023-11-19T02:56:02;100760.55;;;1.53;70.04
61436;BME280;47304;47.456;19.160;2023-11-19T02:58:30;100761.20;;;1.52;70.44
61436;BME280;47304;47.456;19.160;2023-11-19T03:00:59;100761.05;;;1.52;70.28
61436;BME280;47304;47.456;19.160;2023-11-19T03:03:27;100766.44;;;1.49;70.42
61436;BME280;47304;47.456;19.160;2023-11-19T03:05:56;100758.89;;;1.47;70.52
61436;BME280;47304;47.456;19.160;2023-11-19T03:08:24;100750.06;;;1.46;70.56
61436;BME280;47304;47.456;19.160;2023-11-19T03:10:52;100752.02;;;1.43;70.65
61436;BME280;47304;47.456;19.160;2023-11-19T03:13:21;100751.95;;;1.41;70.54
61436;BME280;47304;47.456;19.160;2023-11-19T03:15:49;100754.52;;;1.40;70.67
61436;BME280;47304;47.456;19.160;2023-11-19T03:18:18;100756.63;;;1.42;70.78
61436;BME280;47304;47.456;19.160;2023-11-19T03:20:47;100742.29;;;1.42;70.68
61436;BME280;47304;47.456;19.160;2023-11-19T03:23:16;100736.88;;;1.40;70.59
61436;BME280;47304;47.456;19.160;2023-11-19T03:25:44;100735.11;;;1.39;70.88
61436;BME280;47304;47.456;19.160;2023-11-19T03:28:13;100733.02;;;1.39;70.87
61436;BME280;47304;47.456;19.160;2023-11-19T03:30:42;100731.83;;;1.39;71.03
61436;BME280;47304;47.456;19.160;2023-11-19T03:33:11;100735.46;;;1.39;70.90
61436;BME280;47304;47.456;19.160;2023-11-19T03:35:39;100735.74;;;1.38;70.84
61436;BME280;47304;47.456;19.160;2023-11-19T03:38:08;100744.95;;;1.39;71.03
61436;BME280;47304;47.456;19.160;2023-11-19T03:40:36;100751.23;;;1.40;70.92
61436;BME280;47304;47.456;19.160;2023-11-19T03:43:04;100738.19;;;1.34;70.77
61436;BME280;47304;47.456;19.160;2023-11-19T03:45:33;100715.94;;;1.27;70.68
61436;BME280;47304;47.456;19.160;2023-11-19T03:48:02;100717.15;;;1.23;71.14
61436;BME280;47304;47.456;19.160;2023-11-19T03:50:30;100708.48;;;1.22;71.34
61436;BME280;47304;47.456;19.160;2023-11-19T03:52:59;100693.88;;;1.23;71.59
61436;BME280;47304;47.456;19.160;2023-11-19T03:55:27;100687.15;;;1.28;71.80
61436;BME280;47304;47.456;19.160;2023-11-19T03:57:56;100676.60;;;1.31;71.63
61436;BME280;47304;47.456;19.160;2023-11-19T04:00:24;100676.49;;;1.33;71.54
61436;BME280;47304;47.456;19.160;2023-11-19T04:02:53;100682.90;;;1.33;71.51
61436;BME280;47304;47.456;19.160;2023-11-19T04:05:22;100683.56;;;1.32;71.41
61436;BME280;47304;47.456;19.160;2023-11-19T04:07:51;100682.02;;;1.29;71.49
61436;BME280;47304;47.456;19.160;2023-11-19T04:10:19;100679.73;;;1.28;71.64
61436;BME280;47304;47.456;19.160;2023-11-19T04:12:48;100672.23;;;1.30;71.80
61436;BME280;47304;47.456;19.160;2023-11-19T04:15:17;100663.20;;;1.33;71.87
61436;BME280;47304;47.456;19.160;2023-11-19T04:17:45;100662.64;;;1.36;71.98
61436;BME280;47304;47.456;19.160;2023-11-19T04:20:14;100660.48;;;1.38;71.85
61436;BME280;47304;47.456;19.160;2023-11-19T04:22:42;100663.27;;;1.43;71.91
61436;BME280;47304;47.456;19.160;2023-11-19T04:25:10;100668.94;;;1.47;71.95
61436;BME280;47304;47.456;19.160;2023-11-19T04:27:39;100668.79;;;1.47;71.55
61436;BME280;47304;47.456;19.160;2023-11-19T04:30:09;100664.25;;;1.42;71.28
61436;BME280;47304;47.456;19.160;2023-11-19T04:32:37;100651.64;;;1.37;71.57
61436;BME280;47304;47.456;19.160;2023-11-19T04:35:07;100644.62;;;1.34;71.76
61436;BME280;47304;47.456;19.160;2023-11-19T04:37:36;100644.31;;;1.35;71.82
61436;BME280;47304;47.456;19.160;2023-11-19T04:40:05;100644.36;;;1.36;71.71
61436;BME280;47304;47.456;19.160;2023-11-19T04:42:34;100647.23;;;1.35;71.68
61436;BME280;47304;47.456;19.160;2023-11-19T04:45:02;100653.41;;;1.34;71.63
61436;BME280;47304;47.456;19.160;2023-11-19T04:47:31;100665.76;;;1.32;71.55
61436;BME280;47304;47.456;19.160;2023-11-19T04:50:00;100675.17;;;1.30;71.58
61436;BME280;47304;47.456;19.160;2023-11-19T04:52:28;100675.92;;;1.27;71.43
61436;BME280;47304;47.456;19.160;2023-11-19T04:54:56;100681.16;;;1.25;71.60
61436;BME280;47304;47.456;19.160;2023-11-19T04:57:25;100692.16;;;1.24;71.60
61436;BME280;47304;47.456;19.160;2023-11-19T04:59:53;100699.73;;;1.23;71.76
61436;BME280;47304;47.456;19.160;2023-11-19T05:02:22;100697.04;;;1.24;71.80
61436;BME280;47304;47.456;19.160;2023-11-19T05:04:50;100696.71;;;1.25;71.88
61436;BME280;47304;47.456;19.160;2023-11-19T05:07:19;100693.15;;;1.27;72.06
61436;BME280;47304;47.456;19.160;2023-11-19T05:09:47;100684.98;;;1.30;72.25
61436;BME280;47304;47.456;19.160;2023-11-19T05:12:16;100684.25;;;1.29;72.35
61436;BME280;47304;47.456;19.160;2023-11-19T05:14:44;100679.89;;;1.28;72.37
61436;BME280;47304;47.456;19.160;2023-11-19T05:17:13;100685.89;;;1.26;72.54
61436;BME280;47304;47.456;19.160;2023-11-19T05:19:41;100688.67;;;1.27;72.61
61436;BME280;47304;47.456;19.160;2023-11-19T05:22:10;100691.17;;;1.29;72.76
61436;BME280;47304;47.456;19.160;2023-11-19T05:24:38;100690.27;;;1.32;72.77
61436;BME280;47304;47.456;19.160;2023-11-19T05:27:07;100688.31;;;1.35;72.67
61436;BME280;47304;47.456;19.160;2023-11-19T05:29:36;100679.77;;;1.37;72.64
61436;BME280;47304;47.456;19.160;2023-11-19T05:32:05;100681.18;;;1.34;72.71
61436;BME280;47304;47.456;19.160;2023-11-19T05:34:33;100686.92;;;1.31;72.86
61436;BME280;47304;47.456;19.160;2023-11-19T05:37:02;100685.84;;;1.34;73.14
61436;BME280;47304;47.456;19.160;2023-11-19T05:39:30;100678.36;;;1.36;73.18
61436;BME280;47304;47.456;19.160;2023-11-19T05:41:59;100667.17;;;1.41;73.21
61436;BME280;47304;47.456;19.160;2023-11-19T05:44:28;100672.56;;;1.47;73.34
61436;BME280;47304;47.456;19.160;2023-11-19T05:46:56;100675.52;;;1.51;73.15
61436;BME280;47304;47.456;19.160;2023-11-19T05:49:25;100677.66;;;1.52;72.93
61436;BME280;47304;47.456;19.160;2023-11-19T05:51:53;100673.95;;;1.55;72.89
61436;BME280;47304;47.456;19.160;2023-11-19T05:54:22;100666.81;;;1.58;72.90
61436;BME280;47304;47.456;19.160;2023-11-19T05:56:51;100666.73;;;1.61;73.02
61436;BME280;47304;47.456;19.160;2023-11-19T05:59:19;100669.29;;;1.64;72.97
61436;BME280;47304;47.456;19.160;2023-11-19T06:01:47;100668.87;;;1.66;72.64
61436;BME280;47304;47.456;19.160;2023-11-19T06:04:16;100666.83;;;1.63;72.43
61436;BME280;47304;47.456;19.160;2023-11-19T06:06:45;100669.63;;;1.59;72.63
61436;BME280;47304;47.456;19.160;2023-11-19T06:09:13;100679.52;;;1.60;72.86
61436;BME280;47304;47.456;19.160;2023-11-19T06:11:42;100686.55;;;1.63;72.91
61436;BME280;47304;47.456;19.160;2023-11-19T06:14:10;100680.91;;;1.65;72.73
61436;BME280;47304;47.456;19.160;2023-11-19T06:16:39;100669.10;;;1.63;72.64
61436;BME280;47304;47.456;19.160;2023-11-19T06:19:07;100669.17;;;1.61;72.63
61436;BME280;47304;47.456;19.160;2023-11-19T06:21:36;100662.54;;;1.60;72.55
61436;BME280;47304;47.456;19.160;2023-11-19T06:24:05;100653.81;;;1.57;72.59
61436;BME280;47304;47.456;19.160;2023-11-19T06:26:33;100653.54;;;1.59;72.81
61436;BME280;47304;47.456;19.160;2023-11-19T06:29:02;100651.57;;;1.61;72.74
61436;BME280;47304;47.456;19.160;2023-11-19T06:31:31;100648.14;;;1.62;72.42
61436;BME280;47304;47.456;19.160;2023-11-19T06:34:00;100642.40;;;1.61;72.41
61436;BME280;47304;47.456;19.160;2023-11-19T06:36:28;100636.00;;;1.60;72.47
61436;BME280;47304;47.456;19.160;2023-11-19T06:38:57;100630.52;;;1.62;72.53
61436;BME280;47304;47.456;19.160;2023-11-19T06:41:26;100632.71;;;1.65;72.49
61436;BME280;47304;47.456;19.160;2023-11-19T06:43:55;100629.74;;;1.68;72.42
61436;BME280;47304;47.456;19.160;2023-11-19T06:46:23;100628.44;;;1.70;72.36
61436;BME280;47304;47.456;19.160;2023-11-19T06:48:52;100630.46;;;1.69;72.23
61436;BME280;47304;47.456;19.160;2023-11-19T06:51:20;100627.38;;;1.69;72.26
61436;BME280;47304;47.456;19.160;2023-11-19T06:53:49;100630.39;;;1.71;72.22
61436;BME280;47304;47.456;19.160;2023-11-19T06:56:21;100624.87;;;1.71;72.12
61436;BME280;47304;47.456;19.160;2023-11-19T06:58:50;100619.17;;;1.72;72.19
61436;BME280;47304;47.456;19.160;2023-11-19T07:01:19;100622.30;;;1.73;72.27
61436;BME280;47304;47.456;19.160;2023-11-19T07:03:48;100629.38;;;1.72;72.18
61436;BME280;47304;47.456;19.160;2023-11-19T07:06:17;100625.08;;;1.72;72.34
61436;BME280;47304;47.456;19.160;2023-11-19T07:08:45;100620.84;;;1.75;72.50
61436;BME280;47304;47.456;19.160;2023-11-19T07:11:14;100615.98;;;1.79;72.63
61436;BME280;47304;47.456;19.160;2023-11-19T07:13:42;100621.02;;;1.84;72.61
61436;BME280;47304;47.456;19.160;2023-11-19T07:16:11;100624.79;;;1.87;72.65
61436;BME280;47304;47.456;19.160;2023-11-19T07:18:39;100624.70;;;1.90;72.70
61436;BME280;47304;47.456;19.160;2023-11-19T07:21:08;100629.27;;;1.92;72.68
61436;BME280;47304;47.456;19.160;2023-11-19T07:23:36;100631.16;;;1.96;73.02
61436;BME280;47304;47.456;19.160;2023-11-19T07:26:07;100627.48;;;2.03;73.06
61436;BME280;47304;47.456;19.160;2023-11-19T07:28:36;100628.35;;;2.08;72.80
61436;BME280;47304;47.456;19.160;2023-11-19T07:31:05;100634.17;;;2.11;72.80
61436;BME280;47304;47.456;19.160;2023-11-19T07:33:34;100631.60;;;2.12;72.80
61436;BME280;47304;47.456;19.160;2023-11-19T07:36:02;100633.71;;;2.13;72.80
61436;BME280;47304;47.456;19.160;2023-11-19T07:38:30;100635.04;;;2.16;72.80
61436;BME280;47304;47.456;19.160;2023-11-19T07:40:59;100630.11;;;2.18;72.76
61436;BME280;47304;47.456;19.160;2023-11-19T07:43:28;100633.44;;;2.24;72.95
61436;BME280;47304;47.456;19.160;2023-11-19T07:45:56;100638.00;;;2.31;72.83
61436;BME280;47304;47.456;19.160;2023-11-19T07:48:24;100645.09;;;2.36;72.72
61436;BME280;47304;47.456;19.160;2023-11-19T07:50:53;100649.44;;;2.41;72.68
61436;BME280;47304;47.456;19.160;2023-11-19T07:53:22;100647.05;;;2.46;72.55
61436;BME280;47304;47.456;19.160;2023-11-19T07:55:50;100643.76;;;2.51;72.43
61436;BME280;47304;47.456;19.160;2023-11-19T07:58:19;100639.00;;;2.53;72.23
61436;BME280;47304;47.456;19.160;2023-11-19T08:00:47;100631.30;;;2.56;72.23
61436;BME280;47304;47.456;19.160;2023-11-19T08:03:16;100624.89;;;2.56;71.92
61436;BME280;47304;47.456;19.160;2023-11-19T08:05:44;100612.51;;;2.57;72.02
61436;BME280;47304;47.456;19.160;2023-11-19T08:08:12;100611.34;;;2.58;72.07
61436;BME280;47304;47.456;19.160;2023-11-19T08:10:41;100602.02;;;2.59;72.02
61436;BME280;47304;47.456;19.160;2023-11-19T08:13:09;100596.67;;;2.60;71.94
61436;BME280;47304;47.456;19.160;2023-11-19T08:15:38;100588.80;;;2.61;71.90
61436;BME280;47304;47.456;19.160;2023-11-19T08:18:06;100578.88;;;2.65;71.82
61436;BME280;47304;47.456;19.160;2023-11-19T08:20:35;100573.04;;;2.66;71.75
61436;BME280;47304;47.456;19.160;2023-11-19T08:23:03;100563.73;;;2.67;71.82
61436;BME280;47304;47.456;19.160;2023-11-19T08:25:32;100562.86;;;2.67;71.81
61436;BME280;47304;47.456;19.160;2023-11-19T08:28:00;100557.98;;;2.66;71.67
61436;BME280;47304;47.456;19.160;2023-11-19T08:30:29;100540.88;;;2.66;71.94
61436;BME280;47304;47.456;19.160;2023-11-19T08:32:57;100521.09;;;2.64;71.87
61436;BME280;47304;47.456;19.160;2023-11-19T08:35:25;100537.35;;;2.64;71.96
61436;BME280;47304;47.456;19.160;2023-11-19T08:37:54;100556.63;;;2.67;71.97
61436;BME280;47304;47.456;19.160;2023-11-19T08:40:22;100556.30;;;2.73;72.14
61436;BME280;47304;47.456;19.160;2023-11-19T08:42:51;100561.23;;;2.75;71.75
61436;BME280;47304;47.456;19.160;2023-11-19T08:45:20;100557.10;;;2.71;71.67
61436;BME280;47304;47.456;19.160;2023-11-19T08:47:48;100543.36;;;2.63;71.87
61436;BME280;47304;47.456;19.160;2023-11-19T08:50:17;100558.02;;;2.57;71.83
61436;BME280;47304;47.456;19.160;2023-11-19T08:52:45;100555.48;;;2.53;72.21
61436;BME280;47304;47.456;19.160;2023-11-19T08:55:14;100545.10;;;2.54;72.50
61436;BME280;47304;47.456;19.160;2023-11-19T08:57:42;100542.55;;;2.55;72.47
61436;BME280;47304;47.456;19.160;2023-11-19T09:00:12;100555.25;;;2.57;72.38
61436;BME280;47304;47.456;19.160;2023-11-19T09:02:40;100554.23;;;2.58;72.32
61436;BME280;47304;47.456;19.160;2023-11-19T09:05:09;100538.82;;;2.57;72.40
61436;BME280;47304;47.456;19.160;2023-11-19T09:07:38;100540.58;;;2.58;72.47
61436;BME280;47304;47.456;19.160;2023-11-19T09:10:08;100553.45;;;2.60;72.51
61436;BME280;47304;47.456;19.160;2023-11-19T09:12:36;100572.27;;;2.59;72.21
61436;BME280;47304;47.456;19.160;2023-11-19T09:15:06;100568.51;;;2.60;72.42
61436;BME280;47304;47.456;19.160;2023-11-19T09:17:34;100553.59;;;2.64;72.55
61436;BME280;47304;47.456;19.160;2023-11-19T09:20:03;100562.84;;;2.67;72.41
61436;BME280;47304;47.456;19.160;2023-11-19T09:22:31;100575.77;;;2.70;72.56
61436;BME280;47304;47.456;19.160;2023-11-19T09:24:59;100578.33;;;2.74;72.47
61436;BME280;47304;47.456;19.160;2023-11-19T09:27:28;100579.20;;;2.75;72.25
61436;BME280;47304;47.456;19.160;2023-11-19T09:29:57;100564.30;;;2.74;72.23
61436;BME280;47304;47.456;19.160;2023-11-19T09:32:26;100558.22;;;2.73;72.15
61436;BME280;47304;47.456;19.160;2023-11-19T09:34:54;100566.90;;;2.73;72.31
61436;BME280;47304;47.456;19.160;2023-11-19T09:37:23;100563.70;;;2.76;72.50
61436;BME280;47304;47.456;19.160;2023-11-19T09:39:51;100563.52;;;2.81;72.70
61436;BME280;47304;47.456;19.160;2023-11-19T09:42:20;100548.31;;;2.87;72.68
61436;BME280;47304;47.456;19.160;2023-11-19T09:44:49;100545.67;;;2.96;72.75
61436;BME280;47304;47.456;19.160;2023-11-19T09:47:18;100542.65;;;3.04;72.63
61436;BME280;47304;47.456;19.160;2023-11-19T09:49:47;100537.40;;;3.08;72.25
61436;BME280;47304;47.456;19.160;2023-11-19T09:52:16;100536.28;;;3.10;72.09
61436;BME280;47304;47.456;19.160;2023-11-19T09:54:45;100527.94;;;3.09;71.87
61436;BME280;47304;47.456;19.160;2023-11-19T09:57:14;100521.05;;;3.10;72.02
61436;BME280;47304;47.456;19.160;2023-11-19T09:59:46;100521.47;;;3.13;71.89
61436;BME280;47304;47.456;19.160;2023-11-19T10:02:15;100516.93;;;3.11;71.64
61436;BME280;47304;47.456;19.160;2023-11-19T10:04:45;100511.67;;;3.10;71.67
61436;BME280;47304;47.456;19.160;2023-11-19T10:07:14;100507.86;;;3.10;71.85
61436;BME280;47304;47.456;19.160;2023-11-19T10:09:43;100501.38;;;3.12;71.89
61436;BME280;47304;47.456;19.160;2023-11-19T10:12:11;100500.18;;;3.13;71.93
61436;BME280;47304;47.456;19.160;2023-11-19T10:14:40;100493.86;;;3.17;71.75
61436;BME280;47304;47.456;19.160;2023-11-19T10:17:10;100478.36;;;3.19;71.85
61436;BME280;47304;47.456;19.160;2023-11-19T10:19:41;100471.91;;;3.23;71.98
61436;BME280;47304;47.456;19.160;2023-11-19T10:22:09;100472.63;;;3.29;71.98
61436;BME280;47304;47.456;19.160;2023-11-19T10:24:38;100472.54;;;3.33;71.81
61436;BME280;47304;47.456;19.160;2023-11-19T10:27:08;100471.37;;;3.34;71.81
61436;BME280;47304;47.456;19.160;2023-11-19T10:29:37;100471.24;;;3.34;71.80
61436;BME280;47304;47.456;19.160;2023-11-19T10:32:06;100469.57;;;3.37;71.64
61436;BME280;47304;47.456;19.160;2023-11-19T10:34:34;100467.60;;;3.40;71.69
61436;BME280;47304;47.456;19.160;2023-11-19T10:37:03;100473.63;;;3.45;71.71
61436;BME280;47304;47.456;19.160;2023-11-19T10:39:52;100471.27;;;3.47;71.56
61436;BME280;47304;47.456;19.160;2023-11-19T10:42:21;100469.32;;;3.52;71.57
61436;BME280;47304;47.456;19.160;2023-11-19T10:44:50;100471.32;;;3.55;71.43
61436;BME280;47304;47.456;19.160;2023-11-19T10:47:20;100474.89;;;3.58;71.46
61436;BME280;47304;47.456;19.160;2023-11-19T10:49:50;100474.55;;;3.65;71.54
61436;BME280;47304;47.456;19.160;2023-11-19T10:52:20;100467.80;;;3.70;71.48
61436;BME280;47304;47.456;19.160;2023-11-19T10:54:51;100471.77;;;3.76;71.47
61436;BME280;47304;47.456;19.160;2023-11-19T10:57:21;100464.27;;;3.81;71.54
61436;BME280;47304;47.456;19.160;2023-11-19T10:59:50;100456.13;;;3.87;71.50
61436;BME280;47304;47.456;19.160;2023-11-19T11:02:23;100450.73;;;3.92;71.32
61436;BME280;47304;47.456;19.160;2023-11-19T11:04:53;100450.63;;;3.95;71.24
61436;BME280;47304;47.456;19.160;2023-11-19T11:07:23;100445.73;;;3.99;71.33
61436;BME280;47304;47.456;19.160;2023-11-19T11:09:52;100438.14;;;4.00;71.03
61436;BME280;47304;47.456;19.160;2023-11-19T11:12:23;100429.48;;;4.01;71.03
61436;BME280;47304;47.456;19.160;2023-11-19T11:14:54;100421.49;;;4.00;70.81
61436;BME280;47304;47.456;19.160;2023-11-19T11:17:26;100408.00;;;4.02;70.88
61436;BME280;47304;47.456;19.160;2023-11-19T11:19:56;100406.16;;;4.05;70.79
61436;BME280;47304;47.456;19.160;2023-11-19T11:22:25;100402.26;;;4.08;70.81
61436;BME280;47304;47.456;19.160;2023-11-19T11:25:08;100396.55;;;4.08;70.67
61436;BME280;47304;47.456;19.160;2023-11-19T11:28:07;100396.26;;;4.10;70.67
61436;BME280;47304;47.456;19.160;2023-11-19T11:30:54;100388.88;;;4.13;70.70
61436;BME280;47304;47.456;19.160;2023-11-19T11:36:26;100387.40;;;4.24;70.56
61436;BME280;47304;47.456;19.160;2023-11-19T11:38:55;100388.64;;;4.24;70.60
61436;BME280;47304;47.456;19.160;2023-11-19T11:41:26;100395.14;;;4.20;70.38
61436;BME280;47304;47.456;19.160;2023-11-19T11:43:54;100389.86;;;4.18;70.52
61436;BME280;47304;47.456;19.160;2023-11-19T11:46:56;100390.16;;;4.16;70.49
61436;BME280;47304;47.456;19.160;2023-11-19T11:49:28;100392.84;;;4.12;70.61
61436;BME280;47304;47.456;19.160;2023-11-19T11:52:05;100385.98;;;4.09;70.61
61436;BME280;47304;47.456;19.160;2023-11-19T11:54:39;100375.70;;;4.06;70.63
61436;BME280;47304;47.456;19.160;2023-11-19T11:57:14;100368.00;;;4.04;70.80
61436;BME280;47304;47.456;19.160;2023-11-19T11:59:51;100359.13;;;4.02;70.91
61436;BME280;47304;47.456;19.160;2023-11-19T12:02:21;100359.86;;;4.04;71.06
61436;BME280;47304;47.456;19.160;2023-11-19T12:04:50;100360.26;;;4.06;70.99
61436;BME280;47304;47.456;19.160;2023-11-19T12:07:21;100357.75;;;4.10;70.93
61436;BME280;47304;47.456;19.160;2023-11-19T12:09:53;100347.79;;;4.13;70.85
61436;BME280;47304;47.456;19.160;2023-11-19T12:12:28;100342.05;;;4.20;70.75
61436;BME280;47304;47.456;19.160;2023-11-19T12:15:06;100333.39;;;4.28;70.80
61436;BME280;47304;47.456;19.160;2023-11-19T12:17:42;100322.10;;;4.34;70.49
61436;BME280;47304;47.456;19.160;2023-11-19T12:20:11;100322.45;;;4.41;70.52
61436;BME280;47304;47.456;19.160;2023-11-19T12:22:40;100324.46;;;4.53;70.41
61436;BME280;47304;47.456;19.160;2023-11-19T12:25:10;100325.98;;;4.66;70.14
61436;BME280;47304;47.456;19.160;2023-11-19T12:27:41;100329.70;;;4.77;69.79
61436;BME280;47304;47.456;19.160;2023-11-19T12:30:10;100313.85;;;4.83;69.47
61436;BME280;47304;47.456;19.160;2023-11-19T12:32:43;100302.84;;;4.87;69.35
61436;BME280;47304;47.456;19.160;2023-11-19T12:35:12;100289.05;;;4.92;69.20
61436;BME280;47304;47.456;19.160;2023-11-19T12:37:50;100289.33;;;4.97;69.18
61436;BME280;47304;47.456;19.160;2023-11-19T12:40:19;100290.70;;;5.05;69.03
61436;BME280;47304;47.456;19.160;2023-11-19T12:42:48;100284.59;;;5.11;68.56
61436;BME280;47304;47.456;19.160;2023-11-19T12:45:17;100280.36;;;5.16;68.20
61436;BME280;47304;47.456;19.160;2023-11-19T12:47:46;100277.23;;;5.16;67.93
61436;BME280;47304;47.456;19.160;2023-11-19T12:50:15;100274.95;;;5.15;67.79
61436;BME280;47304;47.456;19.160;2023-11-19T12:52:47;100268.79;;;5.12;67.68
61436;BME280;47304;47.456;19.160;2023-11-19T12:55:30;100265.46;;;5.10;67.86
61436;BME280;47304;47.456;19.160;2023-11-19T12:57:58;100261.09;;;5.08;67.84
61436;BME280;47304;47.456;19.160;2023-11-19T13:00:28;100253.10;;;5.08;67.89
61436;BME280;47304;47.456;19.160;2023-11-19T13:02:57;100252.08;;;5.09;67.91
61436;BME280;47304;47.456;19.160;2023-11-19T13:05:31;100243.39;;;5.08;67.70